createdAt,value
2022-12-26T00:04:54.036Z,99901.34
2022-12-26T00:09:55.774Z,99893.75
2022-12-26T00:14:57.385Z,99912.09
2022-12-26T00:19:59.038Z,99906.91
2022-12-26T00:25:00.659Z,99904.84
2022-12-26T00:30:03.852Z,99915.94
2022-12-26T00:35:05.857Z,99920.31
2022-12-26T00:40:08.183Z,99915.09
2022-12-26T00:45:10.225Z,99910.25
2022-12-26T00:50:15.595Z,99910.06
2022-12-26T00:55:17.789Z,99903.47
2022-12-26T01:00:19.594Z,99892.16
2022-12-26T01:05:21.265Z,99885.72
2022-12-26T01:10:22.906Z,99904.47
2022-12-26T01:15:24.562Z,99899.88
2022-12-26T01:20:27.262Z,99909.41
2022-12-26T01:25:28.914Z,99903.19
2022-12-26T01:30:31.040Z,99897.63
2022-12-26T01:35:33.362Z,99894.25
2022-12-26T01:40:35.055Z,99897.72
2022-12-26T01:45:36.786Z,99886.63
2022-12-26T01:50:51.812Z,99888.25
2022-12-26T01:56:00.201Z,99892.56
2022-12-26T02:01:03.425Z,99886.88
2022-12-26T02:06:05.620Z,99882.31
2022-12-26T02:11:18.223Z,99889.09
2022-12-26T02:16:20.535Z,99884.16
2022-12-26T02:21:37.122Z,99889.72
2022-12-26T02:27:08.183Z,99895.03
2022-12-26T02:32:40.774Z,99907.66
2022-12-26T02:37:54.199Z,99888.81
2022-12-26T02:43:23.427Z,99889.81
2022-12-26T02:48:44.224Z,99892.50
2022-12-26T02:54:14.796Z,99888.81
2022-12-26T02:59:54.105Z,99902.09
2022-12-26T03:05:17.345Z,99882.63
2022-12-26T03:10:40.647Z,99876.63
2022-12-26T03:16:05.322Z,99876.94
2022-12-26T03:21:07.728Z,99868.59
2022-12-26T03:26:31.435Z,99866.00
2022-12-26T03:31:33.031Z,99873.09
2022-12-26T03:36:57.570Z,99869.28
2022-12-26T03:42:26.865Z,99864.59
2022-12-26T03:48:28.786Z,99859.78
2022-12-26T03:54:01.358Z,99875.78
2022-12-26T03:59:27.257Z,99887.72
2022-12-26T04:04:50.003Z,99892.84
2022-12-26T04:10:16.755Z,99886.56
2022-12-26T04:15:41.877Z,99887.88
2022-12-26T04:20:57.512Z,99894.13
2022-12-26T04:26:23.721Z,99907.31
2022-12-26T04:31:48.355Z,99910.47
2022-12-26T04:37:14.825Z,99889.75
2022-12-26T04:42:36.680Z,99889.34
2022-12-26T04:47:38.325Z,99897.72
2022-12-26T04:52:59.848Z,99892.97
2022-12-26T04:58:02.557Z,99900.78
2022-12-26T05:03:22.523Z,99884.41
2022-12-26T05:08:56.067Z,99890.44
2022-12-26T05:13:58.807Z,99888.59
2022-12-26T05:19:19.149Z,99879.31
2022-12-26T05:24:39.492Z,99882.84
2022-12-26T05:29:41.239Z,99873.53
2022-12-26T05:34:42.874Z,99876.72
2022-12-26T05:39:44.501Z,99871.31
2022-12-26T05:44:47.743Z,99886.50
2022-12-26T05:49:49.367Z,99882.75
2022-12-26T05:54:51.035Z,99883.34
2022-12-26T05:59:53.208Z,99880.69
2022-12-26T06:04:54.880Z,99897.28
2022-12-26T06:09:56.505Z,99884.91
2022-12-26T06:14:58.112Z,99885.06
2022-12-26T06:19:59.712Z,99874.78
2022-12-26T06:25:01.374Z,99867.34
2022-12-26T06:30:03.193Z,99853.47
2022-12-26T06:35:05.218Z,99864.63
2022-12-26T06:40:07.524Z,99874.97
2022-12-26T06:45:09.841Z,99875.81
2022-12-26T06:50:12.608Z,99892.22
2022-12-26T06:55:14.285Z,99906.63
2022-12-26T07:00:16.052Z,99916.25
2022-12-26T07:05:17.735Z,99927.44
2022-12-26T07:10:20.563Z,99926.09
2022-12-26T07:15:22.194Z,99917.09
2022-12-26T07:20:24.045Z,99931.34
2022-12-26T07:25:26.110Z,99947.97
2022-12-26T07:30:27.738Z,99937.47
2022-12-26T07:35:29.362Z,99940.53
2022-12-26T07:40:31.041Z,99953.75
2022-12-26T07:45:32.803Z,99953.56
2022-12-26T07:50:34.632Z,99951.72
2022-12-26T07:55:36.745Z,99966.44
2022-12-26T08:00:38.416Z,99971.34
2022-12-26T08:05:40.030Z,99969.66
2022-12-26T08:10:41.718Z,99948.66
2022-12-26T08:15:44.400Z,99956.38
2022-12-26T08:20:46.054Z,99974.97
2022-12-26T08:25:47.676Z,99974.94
2022-12-26T08:30:50.112Z,99970.69
2022-12-26T08:35:51.743Z,99974.88
2022-12-26T08:40:56.189Z,99974.66
2022-12-26T08:46:06.701Z,99968.88
2022-12-26T08:51:17.276Z,99964.66
2022-12-26T08:56:21.339Z,99973.31
2022-12-26T09:01:25.389Z,99973.63
2022-12-26T09:06:27.187Z,99963.81
2022-12-26T09:11:29.283Z,99958.56
2022-12-26T09:16:42.989Z,99974.28
2022-12-26T09:21:48.719Z,99982.78
2022-12-26T09:26:50.959Z,99987.13
2022-12-26T09:31:55.605Z,99989.34
2022-12-26T09:36:57.272Z,99976.47
2022-12-26T09:42:21.457Z,99996.91
2022-12-26T09:47:31.076Z,99999.31
2022-12-26T09:52:52.536Z,99992.44
2022-12-26T09:57:57.506Z,99985.38
2022-12-26T10:02:59.607Z,99977.28
2022-12-26T10:08:40.628Z,99956.03
2022-12-26T10:13:52.920Z,99955.53
2022-12-26T10:19:28.699Z,99961.88
2022-12-26T10:24:36.253Z,99974.66
2022-12-26T10:30:01.358Z,99987.38
2022-12-26T10:35:23.091Z,99966.03
2022-12-26T10:40:28.400Z,99962.78
2022-12-26T10:45:45.324Z,99957.69
2022-12-26T10:50:49.015Z,99951.72
2022-12-26T10:55:50.744Z,99947.00
2022-12-26T11:00:52.508Z,99970.88
2022-12-26T11:06:11.388Z,99963.56
2022-12-26T11:11:26.596Z,99966.88
2022-12-26T11:16:35.602Z,99966.50
2022-12-26T11:21:37.427Z,99957.84
2022-12-26T11:26:39.047Z,99970.00
2022-12-26T11:31:43.499Z,99956.75
2022-12-26T11:36:47.826Z,99952.09
2022-12-26T11:41:51.318Z,99955.81
2022-12-26T11:47:07.495Z,99948.91
2022-12-26T11:52:37.650Z,99931.38
2022-12-26T11:57:39.411Z,99931.25
2022-12-26T12:02:43.073Z,99938.91
2022-12-26T12:08:14.535Z,99946.94
2022-12-26T12:13:34.957Z,99941.72
2022-12-26T12:19:12.064Z,99941.06
2022-12-26T12:24:19.384Z,99940.44
2022-12-26T12:29:34.115Z,99940.50
2022-12-26T12:34:41.491Z,99924.78
2022-12-26T12:40:18.127Z,99919.00
2022-12-26T12:45:27.257Z,99922.25
2022-12-26T12:50:37.901Z,99914.28
2022-12-26T12:56:10.693Z,99920.41
2022-12-26T13:01:16.272Z,99933.66
2022-12-26T13:06:39.192Z,100047.06
2022-12-26T13:12:04.382Z,100053.69
2022-12-26T13:17:11.585Z,100031.03
2022-12-26T13:22:26.898Z,100034.81
2022-12-26T13:27:36.344Z,100036.78
2022-12-26T13:32:41.962Z,100030.59
2022-12-26T13:37:56.588Z,100030.91
2022-12-26T13:43:38.082Z,100022.28
2022-12-26T13:48:39.641Z,100020.44
2022-12-26T13:53:41.970Z,100021.13
2022-12-26T13:58:56.064Z,100015.59
2022-12-26T14:04:24.013Z,100026.63
2022-12-26T14:09:39.491Z,100010.16
2022-12-26T14:14:45.404Z,100013.38
2022-12-26T14:19:59.128Z,100017.22
2022-12-26T14:25:00.934Z,100021.91
2022-12-26T14:30:23.895Z,100012.16
2022-12-26T14:35:40.711Z,100024.00
2022-12-26T14:40:59.586Z,100017.22
2022-12-26T14:46:01.889Z,100026.25
2022-12-26T14:51:03.520Z,100035.22
2022-12-26T14:56:07.947Z,100030.69
2022-12-26T15:01:09.818Z,100036.09
2022-12-26T15:06:34.545Z,100031.09
2022-12-26T15:11:39.068Z,100032.69
2022-12-26T15:17:07.818Z,100037.75
2022-12-26T15:22:40.983Z,100052.84
2022-12-26T15:27:57.817Z,100051.22
2022-12-26T15:33:17.950Z,100062.13
2022-12-26T15:38:35.355Z,100064.53
2022-12-26T15:43:49.351Z,100072.97
2022-12-26T15:48:56.587Z,100059.81
2022-12-26T15:54:16.590Z,100073.28
2022-12-26T15:59:38.785Z,100069.78
2022-12-26T16:04:53.474Z,100060.94
2022-12-26T16:09:56.628Z,100062.59
2022-12-26T16:15:01.409Z,100068.69
2022-12-26T16:20:42.922Z,100067.19
2022-12-26T16:25:52.918Z,100077.69
2022-12-26T16:30:55.992Z,100081.81
2022-12-26T16:36:01.148Z,100078.56
2022-12-26T16:41:19.036Z,100066.09
2022-12-26T16:46:24.960Z,100057.72
2022-12-26T16:51:47.362Z,100061.88
2022-12-26T16:56:51.296Z,100078.28
2022-12-26T17:01:55.972Z,100087.31
2022-12-26T17:07:01.886Z,100075.13
2022-12-26T17:12:07.741Z,100079.16
2022-12-26T17:17:21.518Z,100075.59
2022-12-26T17:22:36.845Z,100062.63
2022-12-26T17:27:38.472Z,100045.16
2022-12-26T17:32:43.546Z,100057.63
2022-12-26T17:37:46.114Z,100067.06
2022-12-26T17:42:48.672Z,100054.06
2022-12-26T17:47:52.091Z,100055.75
2022-12-26T17:52:53.698Z,100054.97
2022-12-26T17:57:55.323Z,100045.25
2022-12-26T18:02:57.101Z,100061.13
2022-12-26T18:07:59.045Z,100062.66
2022-12-26T18:13:01.182Z,100060.34
2022-12-26T18:18:02.964Z,100049.94
2022-12-26T18:23:06.017Z,100059.44
2022-12-26T18:28:11.961Z,100045.63
2022-12-26T18:33:13.744Z,100043.28
2022-12-26T18:38:18.426Z,100063.38
2022-12-26T18:43:20.436Z,100046.84
2022-12-26T18:48:22.117Z,100041.06
2022-12-26T18:53:23.762Z,100038.69
2022-12-26T18:58:25.505Z,100026.38
2022-12-26T19:03:27.131Z,100009.03
2022-12-26T19:08:28.792Z,100026.94
2022-12-26T19:13:30.403Z,100017.53
2022-12-26T19:18:32.050Z,100018.69
2022-12-26T19:23:33.668Z,100032.66
2022-12-26T19:28:35.264Z,100026.03
2022-12-26T19:33:37.105Z,100025.34
2022-12-26T19:38:39.031Z,100048.38
2022-12-26T19:43:41.278Z,100041.97
2022-12-26T19:48:43.558Z,100029.97
2022-12-26T19:53:45.874Z,100037.13
2022-12-26T19:58:54.528Z,100057.13
2022-12-26T20:03:59.368Z,100079.53
2022-12-26T20:09:03.766Z,100108.41
2022-12-26T20:14:06.757Z,100117.41
2022-12-26T20:19:08.414Z,100197.00
2022-12-26T20:24:11.345Z,100214.31
2022-12-26T20:29:13.281Z,100225.16
2022-12-26T20:34:15.276Z,100233.38
2022-12-26T20:39:18.593Z,100247.59
2022-12-26T20:44:20.369Z,100233.78
2022-12-26T20:49:22.029Z,100210.56
2022-12-26T20:54:24.829Z,100145.84
2022-12-26T20:59:26.470Z,100164.03
2022-12-26T21:04:28.139Z,100167.28
2022-12-26T21:09:29.799Z,100199.47
2022-12-26T21:14:31.505Z,100236.91
2022-12-26T21:19:33.131Z,100251.91
2022-12-26T21:24:34.805Z,100247.50
2022-12-26T21:29:37.867Z,100256.22
2022-12-26T21:34:39.562Z,100243.47
2022-12-26T21:39:41.725Z,100270.19
2022-12-26T21:44:43.432Z,100273.66
2022-12-26T21:49:45.062Z,100299.09
2022-12-26T21:55:05.349Z,100329.13
2022-12-26T22:00:07.758Z,100346.19
2022-12-26T22:05:09.421Z,100352.19
2022-12-26T22:10:30.204Z,100366.66
2022-12-26T22:15:50.574Z,100386.03
2022-12-26T22:20:52.446Z,100389.66
2022-12-26T22:25:55.141Z,100408.75
2022-12-26T22:30:57.231Z,100404.81
2022-12-26T22:36:07.139Z,100427.09
2022-12-26T22:41:10.022Z,100432.13
2022-12-26T22:46:12.523Z,100443.75
2022-12-26T22:51:19.872Z,100460.25
2022-12-26T22:56:21.524Z,100467.59
2022-12-26T23:01:23.356Z,100475.75
2022-12-26T23:06:33.420Z,100496.16
2022-12-26T23:11:35.841Z,100506.66
2022-12-26T23:16:56.606Z,100526.88
2022-12-26T23:21:59.416Z,100529.66
2022-12-26T23:27:22.307Z,100539.91
2022-12-26T23:32:23.974Z,100537.50
2022-12-26T23:37:26.203Z,100538.59
2022-12-26T23:42:28.099Z,100546.50
2022-12-26T23:47:29.827Z,100549.56
2022-12-26T23:52:31.859Z,100554.06
2022-12-26T23:57:33.625Z,100556.22
